sensor_id;sensor_type;location;lat;lon;timestamp;P1;durP1;ratioP1;P2;durP2;ratioP2
61473;SDS011;53694;49.784;30.150;2022-07-30T00:00:24;7.01;;;2.91;;
61473;SDS011;53694;49.784;30.150;2022-07-30T00:01:25;4.59;;;2.57;;
61473;SDS011;53694;49.784;30.150;2022-07-30T00:02:27;6.61;;;2.71;;
61473;SDS011;53694;49.784;30.150;2022-07-30T00:03:29;11.99;;;3.01;;
61473;SDS011;53694;49.784;30.150;2022-07-30T00:04:31;6.47;;;3.04;;
61473;SDS011;53694;49.784;30.150;2022-07-30T00:05:32;6.03;;;2.70;;
61473;SDS011;53694;49.784;30.150;2022-07-30T00:06:34;6.69;;;2.82;;
61473;SDS011;53694;49.784;30.150;2022-07-30T00:07:36;5.82;;;2.57;;
61473;SDS011;53694;49.784;30.150;2022-07-30T00:08:38;6.04;;;2.79;;
61473;SDS011;53694;49.784;30.150;2022-07-30T00:09:39;5.57;;;2.82;;
61473;SDS011;53694;49.784;30.150;2022-07-30T00:10:41;8.70;;;3.31;;
61473;SDS011;53694;49.784;30.150;2022-07-30T00:11:43;5.89;;;2.66;;
61473;SDS011;53694;49.784;30.150;2022-07-30T00:12:45;7.67;;;2.92;;
61473;SDS011;53694;49.784;30.150;2022-07-30T00:13:46;9.56;;;3.01;;
61473;SDS011;53694;49.784;30.150;2022-07-30T00:14:48;5.53;;;3.15;;
61473;SDS011;53694;49.784;30.150;2022-07-30T00:15:50;8.31;;;3.31;;
61473;SDS011;53694;49.784;30.150;2022-07-30T00:16:52;8.01;;;3.87;;
61473;SDS011;53694;49.784;30.150;2022-07-30T00:17:54;9.11;;;3.64;;
61473;SDS011;53694;49.784;30.150;2022-07-30T00:18:56;10.55;;;4.05;;
61473;SDS011;53694;49.784;30.150;2022-07-30T00:19:58;7.90;;;3.42;;
61473;SDS011;53694;49.784;30.150;2022-07-30T00:20:59;8.42;;;3.71;;
61473;SDS011;53694;49.784;30.150;2022-07-30T00:22:01;9.02;;;3.44;;
61473;SDS011;53694;49.784;30.150;2022-07-30T00:23:03;6.01;;;3.35;;
61473;SDS011;53694;49.784;30.150;2022-07-30T00:24:05;8.61;;;3.24;;
61473;SDS011;53694;49.784;30.150;2022-07-30T00:25:08;7.70;;;3.65;;
61473;SDS011;53694;49.784;30.150;2022-07-30T00:26:10;9.65;;;3.77;;
61473;SDS011;53694;49.784;30.150;2022-07-30T00:27:12;5.41;;;3.05;;
61473;SDS011;53694;49.784;30.150;2022-07-30T00:28:14;6.14;;;3.60;;
61473;SDS011;53694;49.784;30.150;2022-07-30T00:29:15;6.54;;;3.34;;
61473;SDS011;53694;49.784;30.150;2022-07-30T00:30:17;7.13;;;3.47;;
61473;SDS011;53694;49.784;30.150;2022-07-30T00:31:19;6.91;;;3.42;;
61473;SDS011;53694;49.784;30.150;2022-07-30T00:32:20;7.35;;;3.60;;
61473;SDS011;53694;49.784;30.150;2022-07-30T00:33:22;9.76;;;3.46;;
61473;SDS011;53694;49.784;30.150;2022-07-30T00:34:24;6.32;;;3.67;;
61473;SDS011;53694;49.784;30.150;2022-07-30T00:35:25;9.11;;;3.49;;
61473;SDS011;53694;49.784;30.150;2022-07-30T00:36:28;5.65;;;3.21;;
61473;SDS011;53694;49.784;30.150;2022-07-30T00:37:29;8.62;;;3.80;;
61473;SDS011;53694;49.784;30.150;2022-07-30T00:38:31;6.87;;;2.87;;
61473;SDS011;53694;49.784;30.150;2022-07-30T00:39:33;5.37;;;3.16;;
61473;SDS011;53694;49.784;30.150;2022-07-30T00:40:34;6.73;;;3.11;;
61473;SDS011;53694;49.784;30.150;2022-07-30T00:41:58;5.80;;;3.01;;
61473;SDS011;53694;49.784;30.150;2022-07-30T00:42:56;8.90;;;3.57;;
61473;SDS011;53694;49.784;30.150;2022-07-30T00:43:58;6.95;;;3.33;;
61473;SDS011;53694;49.784;30.150;2022-07-30T00:44:59;9.31;;;3.44;;
61473;SDS011;53694;49.784;30.150;2022-07-30T00:46:01;7.94;;;3.19;;
61473;SDS011;53694;49.784;30.150;2022-07-30T00:47:03;7.13;;;3.19;;
61473;SDS011;53694;49.784;30.150;2022-07-30T00:48:05;8.15;;;3.28;;
61473;SDS011;53694;49.784;30.150;2022-07-30T00:49:06;7.56;;;2.90;;
61473;SDS011;53694;49.784;30.150;2022-07-30T00:50:09;6.47;;;3.23;;
61473;SDS011;53694;49.784;30.150;2022-07-30T00:51:11;6.61;;;3.10;;
61473;SDS011;53694;49.784;30.150;2022-07-30T00:52:13;6.38;;;3.21;;
61473;SDS011;53694;49.784;30.150;2022-07-30T00:53:15;6.84;;;2.94;;
61473;SDS011;53694;49.784;30.150;2022-07-30T00:54:16;7.21;;;2.99;;
61473;SDS011;53694;49.784;30.150;2022-07-30T00:55:18;7.19;;;2.81;;
61473;SDS011;53694;49.784;30.150;2022-07-30T00:56:22;7.16;;;3.08;;
61473;SDS011;53694;49.784;30.150;2022-07-30T00:57:24;5.16;;;2.98;;
61473;SDS011;53694;49.784;30.150;2022-07-30T00:58:26;6.58;;;2.94;;
61473;SDS011;53694;49.784;30.150;2022-07-30T00:59:28;8.48;;;2.98;;
61473;SDS011;53694;49.784;30.150;2022-07-30T01:00:31;5.22;;;2.63;;
61473;SDS011;53694;49.784;30.150;2022-07-30T01:01:33;6.29;;;3.35;;
61473;SDS011;53694;49.784;30.150;2022-07-30T01:02:36;6.72;;;2.72;;
61473;SDS011;53694;49.784;30.150;2022-07-30T01:03:38;6.99;;;2.94;;
61473;SDS011;53694;49.784;30.150;2022-07-30T01:04:39;5.62;;;3.06;;
61473;SDS011;53694;49.784;30.150;2022-07-30T01:05:41;5.35;;;2.95;;
61473;SDS011;53694;49.784;30.150;2022-07-30T01:06:43;6.74;;;3.39;;
61473;SDS011;53694;49.784;30.150;2022-07-30T01:07:44;6.07;;;3.16;;
61473;SDS011;53694;49.784;30.150;2022-07-30T01:08:46;6.67;;;3.30;;
61473;SDS011;53694;49.784;30.150;2022-07-30T01:09:48;10.11;;;3.39;;
61473;SDS011;53694;49.784;30.150;2022-07-30T01:10:50;5.47;;;2.80;;
61473;SDS011;53694;49.784;30.150;2022-07-30T01:11:51;5.71;;;2.79;;
61473;SDS011;53694;49.784;30.150;2022-07-30T01:12:53;7.13;;;3.29;;
61473;SDS011;53694;49.784;30.150;2022-07-30T01:13:55;5.51;;;2.85;;
61473;SDS011;53694;49.784;30.150;2022-07-30T01:14:57;9.42;;;3.32;;
61473;SDS011;53694;49.784;30.150;2022-07-30T01:16:01;10.24;;;3.45;;
61473;SDS011;53694;49.784;30.150;2022-07-30T01:17:03;8.14;;;3.66;;
61473;SDS011;53694;49.784;30.150;2022-07-30T01:18:05;5.92;;;3.02;;
61473;SDS011;53694;49.784;30.150;2022-07-30T01:19:12;6.96;;;3.62;;
61473;SDS011;53694;49.784;30.150;2022-07-30T01:20:30;8.12;;;3.77;;
61473;SDS011;53694;49.784;30.150;2022-07-30T01:21:30;7.23;;;3.87;;
61473;SDS011;53694;49.784;30.150;2022-07-30T01:22:38;7.77;;;3.78;;
61473;SDS011;53694;49.784;30.150;2022-07-30T01:23:42;9.40;;;3.19;;
61473;SDS011;53694;49.784;30.150;2022-07-30T01:26:03;6.24;;;3.54;;
61473;SDS011;53694;49.784;30.150;2022-07-30T01:27:06;8.77;;;3.49;;
61473;SDS011;53694;49.784;30.150;2022-07-30T01:28:15;10.10;;;3.83;;
61473;SDS011;53694;49.784;30.150;2022-07-30T01:29:19;8.77;;;3.98;;
61473;SDS011;53694;49.784;30.150;2022-07-30T01:30:23;8.81;;;4.07;;
61473;SDS011;53694;49.784;30.150;2022-07-30T01:31:27;10.18;;;4.01;;
61473;SDS011;53694;49.784;30.150;2022-07-30T01:32:30;7.95;;;3.69;;
61473;SDS011;53694;49.784;30.150;2022-07-30T01:33:36;9.18;;;3.99;;
61473;SDS011;53694;49.784;30.150;2022-07-30T01:34:39;7.46;;;3.64;;
61473;SDS011;53694;49.784;30.150;2022-07-30T01:35:44;8.01;;;4.11;;
61473;SDS011;53694;49.784;30.150;2022-07-30T01:36:47;7.06;;;3.66;;
61473;SDS011;53694;49.784;30.150;2022-07-30T01:37:51;8.63;;;3.93;;
61473;SDS011;53694;49.784;30.150;2022-07-30T01:38:54;6.51;;;3.24;;
61473;SDS011;53694;49.784;30.150;2022-07-30T01:39:58;10.14;;;3.86;;
61473;SDS011;53694;49.784;30.150;2022-07-30T01:41:01;10.93;;;3.52;;
61473;SDS011;53694;49.784;30.150;2022-07-30T01:42:05;9.80;;;4.45;;
61473;SDS011;53694;49.784;30.150;2022-07-30T01:43:09;10.69;;;4.26;;
61473;SDS011;53694;49.784;30.150;2022-07-30T01:44:12;11.25;;;4.52;;
61473;SDS011;53694;49.784;30.150;2022-07-30T01:45:15;11.72;;;4.21;;
61473;SDS011;53694;49.784;30.150;2022-07-30T01:46:20;12.72;;;4.79;;
61473;SDS011;53694;49.784;30.150;2022-07-30T01:47:24;14.45;;;4.51;;
61473;SDS011;53694;49.784;30.150;2022-07-30T01:48:29;11.04;;;3.76;;
61473;SDS011;53694;49.784;30.150;2022-07-30T01:49:33;8.64;;;3.55;;
61473;SDS011;53694;49.784;30.150;2022-07-30T01:50:37;9.59;;;4.25;;
61473;SDS011;53694;49.784;30.150;2022-07-30T01:51:42;12.09;;;4.48;;
61473;SDS011;53694;49.784;30.150;2022-07-30T01:52:48;8.02;;;4.34;;
61473;SDS011;53694;49.784;30.150;2022-07-30T01:53:52;7.89;;;3.78;;
61473;SDS011;53694;49.784;30.150;2022-07-30T01:54:56;9.29;;;4.21;;
61473;SDS011;53694;49.784;30.150;2022-07-30T01:56:00;9.81;;;4.09;;
61473;SDS011;53694;49.784;30.150;2022-07-30T01:57:02;9.12;;;3.87;;
61473;SDS011;53694;49.784;30.150;2022-07-30T01:58:06;9.15;;;3.84;;
61473;SDS011;53694;49.784;30.150;2022-07-30T01:59:10;8.25;;;4.34;;
61473;SDS011;53694;49.784;30.150;2022-07-30T02:00:14;7.29;;;4.12;;
61473;SDS011;53694;49.784;30.150;2022-07-30T02:01:17;10.54;;;4.26;;
61473;SDS011;53694;49.784;30.150;2022-07-30T02:02:18;9.38;;;4.39;;
61473;SDS011;53694;49.784;30.150;2022-07-30T02:03:21;9.17;;;4.27;;
61473;SDS011;53694;49.784;30.150;2022-07-30T02:04:22;8.70;;;4.02;;
61473;SDS011;53694;49.784;30.150;2022-07-30T02:05:25;7.75;;;3.99;;
61473;SDS011;53694;49.784;30.150;2022-07-30T02:06:31;9.36;;;3.93;;
61473;SDS011;53694;49.784;30.150;2022-07-30T02:07:36;8.51;;;4.32;;
61473;SDS011;53694;49.784;30.150;2022-07-30T02:08:44;7.37;;;4.13;;
61473;SDS011;53694;49.784;30.150;2022-07-30T02:09:57;6.35;;;3.53;;
61473;SDS011;53694;49.784;30.150;2022-07-30T02:11:09;8.53;;;4.02;;
61473;SDS011;53694;49.784;30.150;2022-07-30T02:12:16;6.59;;;3.79;;
61473;SDS011;53694;49.784;30.150;2022-07-30T02:13:21;10.66;;;4.14;;
61473;SDS011;53694;49.784;30.150;2022-07-30T02:14:27;10.56;;;4.15;;
61473;SDS011;53694;49.784;30.150;2022-07-30T02:15:36;7.23;;;4.07;;
61473;SDS011;53694;49.784;30.150;2022-07-30T02:16:55;8.59;;;4.26;;
61473;SDS011;53694;49.784;30.150;2022-07-30T02:19:12;8.00;;;4.40;;
61473;SDS011;53694;49.784;30.150;2022-07-30T02:20:16;7.41;;;4.71;;
61473;SDS011;53694;49.784;30.150;2022-07-30T02:21:21;8.44;;;4.51;;
61473;SDS011;53694;49.784;30.150;2022-07-30T02:22:25;7.12;;;4.53;;
61473;SDS011;53694;49.784;30.150;2022-07-30T02:23:33;8.74;;;4.39;;
61473;SDS011;53694;49.784;30.150;2022-07-30T02:24:38;6.91;;;3.94;;
61473;SDS011;53694;49.784;30.150;2022-07-30T02:25:43;8.16;;;4.01;;
61473;SDS011;53694;49.784;30.150;2022-07-30T02:26:49;10.88;;;4.32;;
61473;SDS011;53694;49.784;30.150;2022-07-30T02:27:55;9.65;;;4.61;;
61473;SDS011;53694;49.784;30.150;2022-07-30T02:28:58;7.11;;;4.59;;
61473;SDS011;53694;49.784;30.150;2022-07-30T02:30:03;7.54;;;4.30;;
61473;SDS011;53694;49.784;30.150;2022-07-30T02:31:06;8.48;;;4.51;;
61473;SDS011;53694;49.784;30.150;2022-07-30T02:32:11;6.82;;;4.08;;
61473;SDS011;53694;49.784;30.150;2022-07-30T02:33:15;9.51;;;4.02;;
61473;SDS011;53694;49.784;30.150;2022-07-30T02:34:19;7.66;;;4.14;;
61473;SDS011;53694;49.784;30.150;2022-07-30T02:35:24;7.41;;;4.23;;
61473;SDS011;53694;49.784;30.150;2022-07-30T02:36:28;10.18;;;4.17;;
61473;SDS011;53694;49.784;30.150;2022-07-30T02:37:32;7.62;;;4.22;;
61473;SDS011;53694;49.784;30.150;2022-07-30T02:38:39;7.95;;;4.14;;
61473;SDS011;53694;49.784;30.150;2022-07-30T02:39:40;7.70;;;4.27;;
61473;SDS011;53694;49.784;30.150;2022-07-30T02:40:43;6.16;;;3.71;;
61473;SDS011;53694;49.784;30.150;2022-07-30T02:41:45;7.68;;;3.97;;
61473;SDS011;53694;49.784;30.150;2022-07-30T02:42:50;6.48;;;3.88;;
61473;SDS011;53694;49.784;30.150;2022-07-30T02:43:53;10.96;;;4.39;;
61473;SDS011;53694;49.784;30.150;2022-07-30T02:44:56;8.88;;;4.08;;
61473;SDS011;53694;49.784;30.150;2022-07-30T02:45:58;7.76;;;4.03;;
61473;SDS011;53694;49.784;30.150;2022-07-30T02:47:01;8.65;;;4.04;;
61473;SDS011;53694;49.784;30.150;2022-07-30T02:48:05;7.91;;;4.38;;
61473;SDS011;53694;49.784;30.150;2022-07-30T02:49:09;8.87;;;4.18;;
61473;SDS011;53694;49.784;30.150;2022-07-30T02:50:12;8.83;;;4.11;;
61473;SDS011;53694;49.784;30.150;2022-07-30T02:51:15;13.71;;;3.92;;
61473;SDS011;53694;49.784;30.150;2022-07-30T02:52:18;8.96;;;4.04;;
61473;SDS011;53694;49.784;30.150;2022-07-30T02:53:22;9.68;;;3.99;;
61473;SDS011;53694;49.784;30.150;2022-07-30T02:54:27;10.11;;;3.93;;
61473;SDS011;53694;49.784;30.150;2022-07-30T02:55:31;8.89;;;4.13;;
61473;SDS011;53694;49.784;30.150;2022-07-30T02:56:34;9.32;;;4.05;;
61473;SDS011;53694;49.784;30.150;2022-07-30T02:57:37;12.33;;;4.50;;
61473;SDS011;53694;49.784;30.150;2022-07-30T02:58:42;9.58;;;4.73;;
61473;SDS011;53694;49.784;30.150;2022-07-30T02:59:45;11.39;;;4.77;;
61473;SDS011;53694;49.784;30.150;2022-07-30T03:00:51;13.87;;;5.21;;
61473;SDS011;53694;49.784;30.150;2022-07-30T03:01:54;9.99;;;4.24;;
61473;SDS011;53694;49.784;30.150;2022-07-30T03:02:57;10.47;;;4.14;;
61473;SDS011;53694;49.784;30.150;2022-07-30T03:04:00;10.15;;;4.19;;
61473;SDS011;53694;49.784;30.150;2022-07-30T03:05:03;10.26;;;4.03;;
61473;SDS011;53694;49.784;30.150;2022-07-30T03:06:07;13.94;;;4.28;;
61473;SDS011;53694;49.784;30.150;2022-07-30T03:07:10;14.63;;;4.21;;
61473;SDS011;53694;49.784;30.150;2022-07-30T03:08:13;9.89;;;4.23;;
61473;SDS011;53694;49.784;30.150;2022-07-30T03:09:16;9.78;;;4.83;;
61473;SDS011;53694;49.784;30.150;2022-07-30T03:10:19;10.01;;;4.36;;
61473;SDS011;53694;49.784;30.150;2022-07-30T03:11:21;9.41;;;4.28;;
61473;SDS011;53694;49.784;30.150;2022-07-30T03:12:28;11.48;;;4.32;;
61473;SDS011;53694;49.784;30.150;2022-07-30T03:13:31;9.41;;;4.22;;
61473;SDS011;53694;49.784;30.150;2022-07-30T03:14:33;11.19;;;3.94;;
61473;SDS011;53694;49.784;30.150;2022-07-30T03:15:34;5.99;;;3.65;;
61473;SDS011;53694;49.784;30.150;2022-07-30T03:16:38;6.56;;;3.85;;
61473;SDS011;53694;49.784;30.150;2022-07-30T03:17:43;8.81;;;3.57;;
61473;SDS011;53694;49.784;30.150;2022-07-30T03:18:47;10.07;;;3.95;;
61473;SDS011;53694;49.784;30.150;2022-07-30T03:19:50;5.69;;;3.60;;
61473;SDS011;53694;49.784;30.150;2022-07-30T03:20:55;8.17;;;3.69;;
61473;SDS011;53694;49.784;30.150;2022-07-30T03:21:59;9.28;;;3.60;;
61473;SDS011;53694;49.784;30.150;2022-07-30T03:23:03;5.92;;;3.62;;
61473;SDS011;53694;49.784;30.150;2022-07-30T03:24:07;8.05;;;3.52;;
61473;SDS011;53694;49.784;30.150;2022-07-30T03:25:11;8.13;;;3.71;;
61473;SDS011;53694;49.784;30.150;2022-07-30T03:26:18;7.75;;;3.71;;
61473;SDS011;53694;49.784;30.150;2022-07-30T03:27:22;9.73;;;3.67;;
61473;SDS011;53694;49.784;30.150;2022-07-30T03:28:26;7.35;;;3.81;;
61473;SDS011;53694;49.784;30.150;2022-07-30T03:29:30;8.17;;;3.91;;
61473;SDS011;53694;49.784;30.150;2022-07-30T03:30:34;7.54;;;3.89;;
61473;SDS011;53694;49.784;30.150;2022-07-30T03:31:37;7.75;;;3.92;;
61473;SDS011;53694;49.784;30.150;2022-07-30T03:32:40;8.01;;;4.32;;
61473;SDS011;53694;49.784;30.150;2022-07-30T03:33:43;7.25;;;3.67;;
61473;SDS011;53694;49.784;30.150;2022-07-30T03:34:46;8.07;;;3.95;;
61473;SDS011;53694;49.784;30.150;2022-07-30T03:35:48;8.94;;;3.77;;
61473;SDS011;53694;49.784;30.150;2022-07-30T03:36:52;9.83;;;4.44;;
61473;SDS011;53694;49.784;30.150;2022-07-30T03:37:54;9.77;;;3.84;;
61473;SDS011;53694;49.784;30.150;2022-07-30T03:38:57;8.15;;;4.29;;
61473;SDS011;53694;49.784;30.150;2022-07-30T03:39:59;9.48;;;4.15;;
61473;SDS011;53694;49.784;30.150;2022-07-30T03:41:02;9.52;;;4.21;;
61473;SDS011;53694;49.784;30.150;2022-07-30T03:42:06;9.24;;;4.32;;
61473;SDS011;53694;49.784;30.150;2022-07-30T03:43:09;9.97;;;4.49;;
61473;SDS011;53694;49.784;30.150;2022-07-30T03:44:11;11.83;;;4.55;;
61473;SDS011;53694;49.784;30.150;2022-07-30T03:45:13;8.85;;;5.19;;
61473;SDS011;53694;49.784;30.150;2022-07-30T03:46:18;10.32;;;4.79;;
61473;SDS011;53694;49.784;30.150;2022-07-30T03:47:21;13.39;;;4.64;;
61473;SDS011;53694;49.784;30.150;2022-07-30T03:48:23;9.68;;;4.41;;
61473;SDS011;53694;49.784;30.150;2022-07-30T03:49:25;8.52;;;4.06;;
61473;SDS011;53694;49.784;30.150;2022-07-30T03:50:29;8.29;;;4.22;;
61473;SDS011;53694;49.784;30.150;2022-07-30T03:51:31;7.73;;;3.91;;
61473;SDS011;53694;49.784;30.150;2022-07-30T03:52:36;7.69;;;3.87;;
61473;SDS011;53694;49.784;30.150;2022-07-30T03:53:39;9.94;;;3.89;;
61473;SDS011;53694;49.784;30.150;2022-07-30T03:54:42;6.18;;;3.40;;
61473;SDS011;53694;49.784;30.150;2022-07-30T03:55:45;9.59;;;3.49;;
61473;SDS011;53694;49.784;30.150;2022-07-30T03:56:47;9.91;;;3.64;;
61473;SDS011;53694;49.784;30.150;2022-07-30T03:57:49;9.69;;;3.76;;
61473;SDS011;53694;49.784;30.150;2022-07-30T03:58:51;7.15;;;3.41;;
61473;SDS011;53694;49.784;30.150;2022-07-30T03:59:53;5.39;;;3.47;;
61473;SDS011;53694;49.784;30.150;2022-07-30T04:00:55;9.39;;;3.40;;
61473;SDS011;53694;49.784;30.150;2022-07-30T04:02:00;5.88;;;3.04;;
61473;SDS011;53694;49.784;30.150;2022-07-30T04:03:03;6.13;;;2.82;;
61473;SDS011;53694;49.784;30.150;2022-07-30T04:04:06;10.53;;;3.50;;
61473;SDS011;53694;49.784;30.150;2022-07-30T04:05:12;8.40;;;3.15;;
61473;SDS011;53694;49.784;30.150;2022-07-30T04:06:17;6.32;;;3.05;;
61473;SDS011;53694;49.784;30.150;2022-07-30T04:07:19;7.97;;;3.02;;
61473;SDS011;53694;49.784;30.150;2022-07-30T04:08:21;7.75;;;2.99;;
61473;SDS011;53694;49.784;30.150;2022-07-30T04:09:22;9.92;;;3.50;;
61473;SDS011;53694;49.784;30.150;2022-07-30T04:10:27;9.62;;;3.34;;
61473;SDS011;53694;49.784;30.150;2022-07-30T04:11:28;6.21;;;3.04;;
61473;SDS011;53694;49.784;30.150;2022-07-30T04:12:30;7.09;;;3.31;;
61473;SDS011;53694;49.784;30.150;2022-07-30T04:13:31;9.08;;;3.40;;
61473;SDS011;53694;49.784;30.150;2022-07-30T04:14:43;7.00;;;2.95;;
61473;SDS011;53694;49.784;30.150;2022-07-30T04:15:50;7.87;;;3.30;;
61473;SDS011;53694;49.784;30.150;2022-07-30T04:16:50;7.68;;;3.11;;
61473;SDS011;53694;49.784;30.150;2022-07-30T04:18:06;9.51;;;3.25;;
61473;SDS011;53694;49.784;30.150;2022-07-30T04:19:14;8.02;;;3.18;;
61473;SDS011;53694;49.784;30.150;2022-07-30T04:20:26;9.91;;;3.13;;
61473;SDS011;53694;49.784;30.150;2022-07-30T04:21:30;7.33;;;3.08;;
61473;SDS011;53694;49.784;30.150;2022-07-30T04:22:35;10.29;;;3.39;;
61473;SDS011;53694;49.784;30.150;2022-07-30T04:23:38;8.36;;;3.41;;
61473;SDS011;53694;49.784;30.150;2022-07-30T04:24:41;6.88;;;3.06;;
61473;SDS011;53694;49.784;30.150;2022-07-30T04:25:45;5.44;;;3.23;;
61473;SDS011;53694;49.784;30.150;2022-07-30T04:26:47;12.05;;;3.24;;
61473;SDS011;53694;49.784;30.150;2022-07-30T04:27:51;6.88;;;2.92;;
61473;SDS011;53694;49.784;30.150;2022-07-30T04:28:53;6.49;;;3.19;;
61473;SDS011;53694;49.784;30.150;2022-07-30T04:29:55;7.36;;;2.96;;
61473;SDS011;53694;49.784;30.150;2022-07-30T04:30:57;9.16;;;3.17;;
61473;SDS011;53694;49.784;30.150;2022-07-30T04:31:59;10.20;;;3.37;;
61473;SDS011;53694;49.784;30.150;2022-07-30T04:33:01;8.36;;;3.23;;
61473;SDS011;53694;49.784;30.150;2022-07-30T04:34:04;8.54;;;3.22;;
61473;SDS011;53694;49.784;30.150;2022-07-30T04:35:06;7.71;;;3.16;;
61473;SDS011;53694;49.784;30.150;2022-07-30T04:36:09;10.13;;;3.59;;
61473;SDS011;53694;49.784;30.150;2022-07-30T04:37:10;8.01;;;2.95;;
61473;SDS011;53694;49.784;30.150;2022-07-30T04:38:12;6.94;;;3.20;;
61473;SDS011;53694;49.784;30.150;2022-07-30T04:39:14;5.58;;;3.21;;
61473;SDS011;53694;49.784;30.150;2022-07-30T04:40:17;6.66;;;2.94;;
61473;SDS011;53694;49.784;30.150;2022-07-30T04:41:19;6.93;;;2.94;;
61473;SDS011;53694;49.784;30.150;2022-07-30T04:42:21;8.22;;;2.99;;
61473;SDS011;53694;49.784;30.150;2022-07-30T04:43:22;7.20;;;3.61;;
61473;SDS011;53694;49.784;30.150;2022-07-30T04:44:24;8.81;;;3.32;;
61473;SDS011;53694;49.784;30.150;2022-07-30T04:45:26;9.29;;;3.47;;
61473;SDS011;53694;49.784;30.150;2022-07-30T04:46:28;6.15;;;3.13;;
61473;SDS011;53694;49.784;30.150;2022-07-30T04:47:30;6.63;;;2.98;;
61473;SDS011;53694;49.784;30.150;2022-07-30T04:48:31;6.04;;;3.15;;
61473;SDS011;53694;49.784;30.150;2022-07-30T04:49:33;8.49;;;3.26;;
61473;SDS011;53694;49.784;30.150;2022-07-30T04:50:36;6.51;;;2.89;;
61473;SDS011;53694;49.784;30.150;2022-07-30T04:51:40;10.62;;;2.91;;
61473;SDS011;53694;49.784;30.150;2022-07-30T04:52:43;5.63;;;2.90;;
61473;SDS011;53694;49.784;30.150;2022-07-30T04:53:45;7.64;;;2.83;;
61473;SDS011;53694;49.784;30.150;2022-07-30T04:54:58;5.99;;;3.24;;
61473;SDS011;53694;49.784;30.150;2022-07-30T04:55:56;6.04;;;3.27;;
61473;SDS011;53694;49.784;30.150;2022-07-30T04:57:01;8.75;;;2.89;;
61473;SDS011;53694;49.784;30.150;2022-07-30T04:58:04;7.29;;;2.96;;
61473;SDS011;53694;49.784;30.150;2022-07-30T04:59:07;5.87;;;2.51;;
61473;SDS011;53694;49.784;30.150;2022-07-30T05:00:11;6.05;;;2.90;;
61473;SDS011;53694;49.784;30.150;2022-07-30T05:01:15;7.31;;;2.77;;
61473;SDS011;53694;49.784;30.150;2022-07-30T05:02:19;7.72;;;3.17;;
61473;SDS011;53694;49.784;30.150;2022-07-30T05:03:22;5.13;;;2.72;;
61473;SDS011;53694;49.784;30.150;2022-07-30T05:04:25;5.25;;;2.87;;
61473;SDS011;53694;49.784;30.150;2022-07-30T05:05:29;6.29;;;3.12;;
61473;SDS011;53694;49.784;30.150;2022-07-30T05:06:31;8.71;;;3.77;;
61473;SDS011;53694;49.784;30.150;2022-07-30T05:07:34;5.21;;;3.18;;
61473;SDS011;53694;49.784;30.150;2022-07-30T05:08:37;6.60;;;3.32;;
61473;SDS011;53694;49.784;30.150;2022-07-30T05:09:40;6.83;;;3.79;;
61473;SDS011;53694;49.784;30.150;2022-07-30T05:10:42;8.26;;;3.30;;
61473;SDS011;53694;49.784;30.150;2022-07-30T05:11:51;9.11;;;3.87;;
61473;SDS011;53694;49.784;30.150;2022-07-30T05:12:53;8.48;;;3.93;;
61473;SDS011;53694;49.784;30.150;2022-07-30T05:13:55;8.97;;;3.73;;
61473;SDS011;53694;49.784;30.150;2022-07-30T05:14:56;6.84;;;2.94;;
61473;SDS011;53694;49.784;30.150;2022-07-30T05:15:58;6.61;;;3.02;;
61473;SDS011;53694;49.784;30.150;2022-07-30T05:17:00;9.60;;;5.51;;
61473;SDS011;53694;49.784;30.150;2022-07-30T05:18:02;9.42;;;5.31;;
61473;SDS011;53694;49.784;30.150;2022-07-30T05:19:04;8.57;;;3.43;;
61473;SDS011;53694;49.784;30.150;2022-07-30T05:20:06;6.19;;;2.95;;
61473;SDS011;53694;49.784;30.150;2022-07-30T05:21:08;5.90;;;3.27;;
61473;SDS011;53694;49.784;30.150;2022-07-30T05:22:10;9.54;;;3.32;;
61473;SDS011;53694;49.784;30.150;2022-07-30T05:23:12;8.39;;;2.81;;
61473;SDS011;53694;49.784;30.150;2022-07-30T05:24:13;8.33;;;2.88;;
61473;SDS011;53694;49.784;30.150;2022-07-30T05:25:15;6.71;;;3.09;;
61473;SDS011;53694;49.784;30.150;2022-07-30T05:26:19;8.29;;;3.40;;
61473;SDS011;53694;49.784;30.150;2022-07-30T05:27:21;10.37;;;2.99;;
61473;SDS011;53694;49.784;30.150;2022-07-30T05:28:23;11.88;;;5.19;;
61473;SDS011;53694;49.784;30.150;2022-07-30T05:29:25;8.48;;;3.99;;
61473;SDS011;53694;49.784;30.150;2022-07-30T05:30:27;7.11;;;3.58;;
61473;SDS011;53694;49.784;30.150;2022-07-30T05:31:29;9.67;;;3.51;;
61473;SDS011;53694;49.784;30.150;2022-07-30T05:32:30;9.09;;;3.61;;
61473;SDS011;53694;49.784;30.150;2022-07-30T05:33:32;6.79;;;3.16;;
61473;SDS011;53694;49.784;30.150;2022-07-30T05:34:34;7.34;;;3.13;;
61473;SDS011;53694;49.784;30.150;2022-07-30T05:35:35;5.87;;;3.19;;
61473;SDS011;53694;49.784;30.150;2022-07-30T05:36:37;8.26;;;3.31;;
61473;SDS011;53694;49.784;30.150;2022-07-30T05:37:39;4.52;;;2.88;;
61473;SDS011;53694;49.784;30.150;2022-07-30T05:38:40;6.72;;;3.05;;
61473;SDS011;53694;49.784;30.150;2022-07-30T05:39:42;6.04;;;2.97;;
61473;SDS011;53694;49.784;30.150;2022-07-30T05:40:44;5.32;;;2.65;;
61473;SDS011;53694;49.784;30.150;2022-07-30T05:41:47;6.63;;;3.13;;
61473;SDS011;53694;49.784;30.150;2022-07-30T05:42:49;6.74;;;3.22;;
61473;SDS011;53694;49.784;30.150;2022-07-30T05:43:50;6.05;;;2.86;;
61473;SDS011;53694;49.784;30.150;2022-07-30T05:44:52;5.49;;;3.01;;
61473;SDS011;53694;49.784;30.150;2022-07-30T05:45:53;7.79;;;3.39;;
61473;SDS011;53694;49.784;30.150;2022-07-30T05:46:55;7.25;;;2.97;;
61473;SDS011;53694;49.784;30.150;2022-07-30T05:47:57;7.58;;;3.56;;
61473;SDS011;53694;49.784;30.150;2022-07-30T05:48:58;7.94;;;3.21;;
61473;SDS011;53694;49.784;30.150;2022-07-30T05:50:00;7.69;;;2.86;;
61473;SDS011;53694;49.784;30.150;2022-07-30T05:51:02;8.27;;;3.16;;
61473;SDS011;53694;49.784;30.150;2022-07-30T05:52:04;8.63;;;4.52;;
61473;SDS011;53694;49.784;30.150;2022-07-30T05:53:06;6.96;;;3.41;;
61473;SDS011;53694;49.784;30.150;2022-07-30T05:54:07;4.79;;;2.59;;
61473;SDS011;53694;49.784;30.150;2022-07-30T05:55:09;11.86;;;3.11;;
61473;SDS011;53694;49.784;30.150;2022-07-30T05:56:11;6.78;;;3.51;;
61473;SDS011;53694;49.784;30.150;2022-07-30T05:57:12;8.37;;;3.94;;
61473;SDS011;53694;49.784;30.150;2022-07-30T05:58:14;6.21;;;3.46;;
61473;SDS011;53694;49.784;30.150;2022-07-30T05:59:16;5.47;;;2.82;;
61473;SDS011;53694;49.784;30.150;2022-07-30T06:00:18;5.31;;;2.91;;
61473;SDS011;53694;49.784;30.150;2022-07-30T06:01:20;7.02;;;3.46;;
61473;SDS011;53694;49.784;30.150;2022-07-30T06:02:21;9.45;;;3.99;;
61473;SDS011;53694;49.784;30.150;2022-07-30T06:03:23;6.23;;;3.00;;
61473;SDS011;53694;49.784;30.150;2022-07-30T06:04:25;7.69;;;2.89;;
61473;SDS011;53694;49.784;30.150;2022-07-30T06:05:26;8.42;;;3.58;;
61473;SDS011;53694;49.784;30.150;2022-07-30T06:06:29;5.60;;;3.07;;
61473;SDS011;53694;49.784;30.150;2022-07-30T06:07:30;6.94;;;2.86;;
61473;SDS011;53694;49.784;30.150;2022-07-30T06:08:32;7.90;;;3.10;;
61473;SDS011;53694;49.784;30.150;2022-07-30T06:09:34;6.11;;;2.76;;
61473;SDS011;53694;49.784;30.150;2022-07-30T06:10:36;7.58;;;3.25;;
61473;SDS011;53694;49.784;30.150;2022-07-30T06:11:38;5.89;;;2.89;;
61473;SDS011;53694;49.784;30.150;2022-07-30T06:12:39;6.24;;;2.62;;
61473;SDS011;53694;49.784;30.150;2022-07-30T06:13:41;5.40;;;2.71;;
61473;SDS011;53694;49.784;30.150;2022-07-30T06:14:43;7.15;;;2.64;;
61473;SDS011;53694;49.784;30.150;2022-07-30T06:15:44;4.71;;;2.49;;
61473;SDS011;53694;49.784;30.150;2022-07-30T06:16:46;7.57;;;3.07;;